sensor_id;sensor_type;location;lat;lon;timestamp;P1;durP1;ratioP1;P2;durP2;ratioP2
73130;SDS011;64204;13.766;100.702;2024-01-07T00:02:06;25.55;;;14.05;;
73130;SDS011;64204;13.766;100.702;2024-01-07T00:04:33;23.23;;;14.95;;
73130;SDS011;64204;13.766;100.702;2024-01-07T00:06:59;22.23;;;13.63;;
73130;SDS011;64204;13.766;100.702;2024-01-07T00:09:26;20.75;;;13.38;;
73130;SDS011;64204;13.766;100.702;2024-01-07T00:11:52;24.27;;;14.40;;
73130;SDS011;64204;13.766;100.702;2024-01-07T00:14:19;18.77;;;12.73;;
73130;SDS011;64204;13.766;100.702;2024-01-07T00:16:45;22.95;;;13.93;;
73130;SDS011;64204;13.766;100.702;2024-01-07T00:19:11;26.70;;;15.13;;
73130;SDS011;64204;13.766;100.702;2024-01-07T00:21:38;27.83;;;14.57;;
73130;SDS011;64204;13.766;100.702;2024-01-07T00:24:04;18.83;;;12.13;;
73130;SDS011;64204;13.766;100.702;2024-01-07T00:26:31;20.15;;;11.93;;
73130;SDS011;64204;13.766;100.702;2024-01-07T00:28:57;21.95;;;12.55;;
73130;SDS011;64204;13.766;100.702;2024-01-07T00:31:23;18.65;;;11.70;;
73130;SDS011;64204;13.766;100.702;2024-01-07T00:33:50;21.92;;;12.45;;
73130;SDS011;64204;13.766;100.702;2024-01-07T00:36:16;16.92;;;11.45;;
73130;SDS011;64204;13.766;100.702;2024-01-07T00:39:21;16.63;;;10.82;;
73130;SDS011;64204;13.766;100.702;2024-01-07T00:41:56;15.15;;;10.43;;
73130;SDS011;64204;13.766;100.702;2024-01-07T00:46:54;24.80;;;11.63;;
73130;SDS011;64204;13.766;100.702;2024-01-07T00:49:20;20.08;;;12.05;;
73130;SDS011;64204;13.766;100.702;2024-01-07T00:51:47;19.33;;;11.93;;
73130;SDS011;64204;13.766;100.702;2024-01-07T00:54:13;17.42;;;11.45;;
73130;SDS011;64204;13.766;100.702;2024-01-07T00:56:39;17.77;;;11.02;;
73130;SDS011;64204;13.766;100.702;2024-01-07T00:59:06;16.65;;;10.77;;
73130;SDS011;64204;13.766;100.702;2024-01-07T01:01:35;18.80;;;12.32;;
73130;SDS011;64204;13.766;100.702;2024-01-07T01:04:01;25.63;;;12.68;;
73130;SDS011;64204;13.766;100.702;2024-01-07T01:06:30;17.83;;;10.05;;
73130;SDS011;64204;13.766;100.702;2024-01-07T01:08:59;17.92;;;12.35;;
73130;SDS011;64204;13.766;100.702;2024-01-07T01:11:26;16.50;;;10.48;;
73130;SDS011;64204;13.766;100.702;2024-01-07T01:13:52;21.88;;;12.50;;
73130;SDS011;64204;13.766;100.702;2024-01-07T01:16:21;24.75;;;13.52;;
73130;SDS011;64204;13.766;100.702;2024-01-07T01:18:49;17.38;;;10.90;;
73130;SDS011;64204;13.766;100.702;2024-01-07T01:21:19;22.58;;;12.57;;
73130;SDS011;64204;13.766;100.702;2024-01-07T01:23:46;16.85;;;11.13;;
73130;SDS011;64204;13.766;100.702;2024-01-07T01:26:13;17.20;;;9.88;;
73130;SDS011;64204;13.766;100.702;2024-01-07T01:28:39;18.38;;;11.05;;
73130;SDS011;64204;13.766;100.702;2024-01-07T01:31:05;14.95;;;9.70;;
73130;SDS011;64204;13.766;100.702;2024-01-07T01:33:32;17.67;;;10.00;;
73130;SDS011;64204;13.766;100.702;2024-01-07T01:35:58;16.85;;;10.23;;
73130;SDS011;64204;13.766;100.702;2024-01-07T01:38:24;19.20;;;10.18;;
73130;SDS011;64204;13.766;100.702;2024-01-07T01:40:52;18.25;;;10.65;;
73130;SDS011;64204;13.766;100.702;2024-01-07T01:43:22;14.45;;;9.85;;
73130;SDS011;64204;13.766;100.702;2024-01-07T01:45:58;20.92;;;10.93;;
73130;SDS011;64204;13.766;100.702;2024-01-07T01:48:25;21.30;;;10.27;;
73130;SDS011;64204;13.766;100.702;2024-01-07T01:50:53;17.10;;;9.43;;
73130;SDS011;64204;13.766;100.702;2024-01-07T01:53:24;16.55;;;10.27;;
73130;SDS011;64204;13.766;100.702;2024-01-07T01:55:52;15.48;;;9.43;;
73130;SDS011;64204;13.766;100.702;2024-01-07T01:58:19;15.80;;;9.55;;
73130;SDS011;64204;13.766;100.702;2024-01-07T02:00:45;16.77;;;8.80;;
73130;SDS011;64204;13.766;100.702;2024-01-07T02:03:12;13.15;;;8.13;;
73130;SDS011;64204;13.766;100.702;2024-01-07T02:05:38;16.10;;;8.50;;
73130;SDS011;64204;13.766;100.702;2024-01-07T02:08:05;14.70;;;8.40;;
73130;SDS011;64204;13.766;100.702;2024-01-07T02:10:32;16.08;;;8.23;;
73130;SDS011;64204;13.766;100.702;2024-01-07T02:13:02;14.95;;;8.27;;
73130;SDS011;64204;13.766;100.702;2024-01-07T02:15:29;14.40;;;8.38;;
73130;SDS011;64204;13.766;100.702;2024-01-07T02:17:56;13.10;;;8.38;;
73130;SDS011;64204;13.766;100.702;2024-01-07T02:20:23;14.60;;;7.75;;
73130;SDS011;64204;13.766;100.702;2024-01-07T02:22:50;14.65;;;8.57;;
73130;SDS011;64204;13.766;100.702;2024-01-07T02:25:17;11.73;;;7.85;;
73130;SDS011;64204;13.766;100.702;2024-01-07T02:27:43;14.00;;;7.63;;
73130;SDS011;64204;13.766;100.702;2024-01-07T02:30:09;14.35;;;7.57;;
73130;SDS011;64204;13.766;100.702;2024-01-07T02:32:36;13.23;;;7.60;;
73130;SDS011;64204;13.766;100.702;2024-01-07T02:35:03;13.73;;;8.25;;
73130;SDS011;64204;13.766;100.702;2024-01-07T02:37:51;15.00;;;7.88;;
73130;SDS011;64204;13.766;100.702;2024-01-07T02:40:19;13.68;;;7.80;;
73130;SDS011;64204;13.766;100.702;2024-01-07T02:42:46;16.80;;;8.15;;
73130;SDS011;64204;13.766;100.702;2024-01-07T02:45:12;12.70;;;7.55;;
73130;SDS011;64204;13.766;100.702;2024-01-07T02:47:41;12.93;;;8.18;;
73130;SDS011;64204;13.766;100.702;2024-01-07T02:50:08;13.13;;;7.38;;
73130;SDS011;64204;13.766;100.702;2024-01-07T02:52:37;13.50;;;8.10;;
73130;SDS011;64204;13.766;100.702;2024-01-07T02:55:04;14.80;;;7.78;;
73130;SDS011;64204;13.766;100.702;2024-01-07T02:57:30;12.70;;;7.53;;
73130;SDS011;64204;13.766;100.702;2024-01-07T03:00:02;13.65;;;7.53;;
73130;SDS011;64204;13.766;100.702;2024-01-07T03:02:35;12.02;;;7.18;;
73130;SDS011;64204;13.766;100.702;2024-01-07T03:05:02;16.08;;;7.28;;
73130;SDS011;64204;13.766;100.702;2024-01-07T03:07:28;17.30;;;7.55;;
73130;SDS011;64204;13.766;100.702;2024-01-07T03:09:55;12.10;;;6.80;;
73130;SDS011;64204;13.766;100.702;2024-01-07T03:12:21;14.30;;;7.53;;
73130;SDS011;64204;13.766;100.702;2024-01-07T03:14:48;14.35;;;7.60;;
73130;SDS011;64204;13.766;100.702;2024-01-07T03:17:14;16.30;;;7.43;;
73130;SDS011;64204;13.766;100.702;2024-01-07T03:19:42;12.23;;;7.07;;
73130;SDS011;64204;13.766;100.702;2024-01-07T03:22:09;15.73;;;7.65;;
73130;SDS011;64204;13.766;100.702;2024-01-07T03:24:35;12.48;;;7.10;;
73130;SDS011;64204;13.766;100.702;2024-01-07T03:27:04;11.50;;;6.75;;
73130;SDS011;64204;13.766;100.702;2024-01-07T03:29:31;11.15;;;6.68;;
73130;SDS011;64204;13.766;100.702;2024-01-07T03:31:58;13.02;;;6.45;;
73130;SDS011;64204;13.766;100.702;2024-01-07T03:34:24;11.10;;;6.25;;
73130;SDS011;64204;13.766;100.702;2024-01-07T03:36:51;10.25;;;6.72;;
73130;SDS011;64204;13.766;100.702;2024-01-07T03:39:17;10.73;;;6.15;;
73130;SDS011;64204;13.766;100.702;2024-01-07T03:41:46;10.85;;;6.07;;
73130;SDS011;64204;13.766;100.702;2024-01-07T03:44:15;9.05;;;6.18;;
73130;SDS011;64204;13.766;100.702;2024-01-07T03:46:41;11.55;;;6.40;;
73130;SDS011;64204;13.766;100.702;2024-01-07T03:49:07;12.05;;;6.35;;
73130;SDS011;64204;13.766;100.702;2024-01-07T03:51:34;11.23;;;6.15;;
73130;SDS011;64204;13.766;100.702;2024-01-07T03:54:00;11.52;;;6.30;;
73130;SDS011;64204;13.766;100.702;2024-01-07T03:56:27;12.55;;;5.78;;
73130;SDS011;64204;13.766;100.702;2024-01-07T03:58:53;16.73;;;6.18;;
73130;SDS011;64204;13.766;100.702;2024-01-07T04:01:20;11.50;;;5.72;;
73130;SDS011;64204;13.766;100.702;2024-01-07T04:03:46;13.25;;;6.35;;
73130;SDS011;64204;13.766;100.702;2024-01-07T04:06:15;12.65;;;6.25;;
73130;SDS011;64204;13.766;100.702;2024-01-07T04:08:42;10.82;;;5.90;;
73130;SDS011;64204;13.766;100.702;2024-01-07T04:11:08;11.23;;;6.20;;
73130;SDS011;64204;13.766;100.702;2024-01-07T04:13:35;14.25;;;7.10;;
73130;SDS011;64204;13.766;100.702;2024-01-07T04:16:04;10.60;;;6.35;;
73130;SDS011;64204;13.766;100.702;2024-01-07T04:18:41;15.23;;;6.55;;
73130;SDS011;64204;13.766;100.702;2024-01-07T04:21:10;10.20;;;6.47;;
73130;SDS011;64204;13.766;100.702;2024-01-07T04:23:38;12.40;;;6.93;;
73130;SDS011;64204;13.766;100.702;2024-01-07T04:26:06;10.48;;;6.88;;
73130;SDS011;64204;13.766;100.702;2024-01-07T04:28:33;10.30;;;6.03;;
73130;SDS011;64204;13.766;100.702;2024-01-07T04:30:59;13.25;;;7.20;;
73130;SDS011;64204;13.766;100.702;2024-01-07T04:33:26;11.95;;;6.70;;
73130;SDS011;64204;13.766;100.702;2024-01-07T04:35:52;14.40;;;7.22;;
73130;SDS011;64204;13.766;100.702;2024-01-07T04:38:23;8.88;;;5.78;;
73130;SDS011;64204;13.766;100.702;2024-01-07T04:40:50;11.38;;;6.65;;
73130;SDS011;64204;13.766;100.702;2024-01-07T04:43:17;11.27;;;6.20;;
73130;SDS011;64204;13.766;100.702;2024-01-07T04:45:44;9.77;;;6.05;;
73130;SDS011;64204;13.766;100.702;2024-01-07T04:48:14;12.13;;;5.90;;
73130;SDS011;64204;13.766;100.702;2024-01-07T04:50:40;10.95;;;5.93;;
73130;SDS011;64204;13.766;100.702;2024-01-07T04:53:24;12.00;;;6.50;;
73130;SDS011;64204;13.766;100.702;2024-01-07T04:55:51;12.73;;;6.10;;
73130;SDS011;64204;13.766;100.702;2024-01-07T04:58:17;12.82;;;6.18;;
73130;SDS011;64204;13.766;100.702;2024-01-07T05:00:49;11.77;;;6.30;;
73130;SDS011;64204;13.766;100.702;2024-01-07T05:03:27;9.85;;;5.72;;
73130;SDS011;64204;13.766;100.702;2024-01-07T05:05:54;11.98;;;5.90;;
73130;SDS011;64204;13.766;100.702;2024-01-07T05:08:20;11.43;;;6.05;;
73130;SDS011;64204;13.766;100.702;2024-01-07T05:10:47;12.88;;;5.97;;
73130;SDS011;64204;13.766;100.702;2024-01-07T05:13:13;8.68;;;5.70;;
73130;SDS011;64204;13.766;100.702;2024-01-07T05:15:39;10.55;;;5.95;;
73130;SDS011;64204;13.766;100.702;2024-01-07T05:18:09;10.80;;;5.60;;
73130;SDS011;64204;13.766;100.702;2024-01-07T05:20:36;12.52;;;6.28;;
73130;SDS011;64204;13.766;100.702;2024-01-07T05:23:03;9.30;;;5.35;;
73130;SDS011;64204;13.766;100.702;2024-01-07T05:25:29;10.18;;;5.70;;
73130;SDS011;64204;13.766;100.702;2024-01-07T05:27:56;8.55;;;5.13;;
73130;SDS011;64204;13.766;100.702;2024-01-07T05:30:22;10.40;;;5.53;;
73130;SDS011;64204;13.766;100.702;2024-01-07T05:32:48;8.10;;;5.25;;
73130;SDS011;64204;13.766;100.702;2024-01-07T05:35:18;10.77;;;5.57;;
73130;SDS011;64204;13.766;100.702;2024-01-07T05:37:44;9.68;;;5.35;;
73130;SDS011;64204;13.766;100.702;2024-01-07T05:40:11;10.85;;;5.80;;
73130;SDS011;64204;13.766;100.702;2024-01-07T05:42:37;14.48;;;5.28;;
73130;SDS011;64204;13.766;100.702;2024-01-07T05:45:04;12.40;;;5.63;;
73130;SDS011;64204;13.766;100.702;2024-01-07T05:47:30;8.88;;;5.30;;
73130;SDS011;64204;13.766;100.702;2024-01-07T05:49:57;12.57;;;5.57;;
73130;SDS011;64204;13.766;100.702;2024-01-07T05:52:23;10.60;;;5.30;;
73130;SDS011;64204;13.766;100.702;2024-01-07T05:54:50;10.25;;;4.72;;
73130;SDS011;64204;13.766;100.702;2024-01-07T05:57:19;9.68;;;5.35;;
73130;SDS011;64204;13.766;100.702;2024-01-07T05:59:45;10.25;;;4.85;;
73130;SDS011;64204;13.766;100.702;2024-01-07T06:02:12;9.85;;;5.80;;
73130;SDS011;64204;13.766;100.702;2024-01-07T06:04:38;9.23;;;5.35;;
73130;SDS011;64204;13.766;100.702;2024-01-07T06:07:05;11.00;;;5.53;;
73130;SDS011;64204;13.766;100.702;2024-01-07T06:09:32;9.25;;;5.10;;
73130;SDS011;64204;13.766;100.702;2024-01-07T06:11:59;9.80;;;6.20;;
73130;SDS011;64204;13.766;100.702;2024-01-07T06:14:25;10.25;;;5.75;;
73130;SDS011;64204;13.766;100.702;2024-01-07T06:16:52;7.70;;;5.32;;
73130;SDS011;64204;13.766;100.702;2024-01-07T06:19:18;10.38;;;5.13;;
73130;SDS011;64204;13.766;100.702;2024-01-07T06:21:45;7.85;;;5.70;;
73130;SDS011;64204;13.766;100.702;2024-01-07T06:24:11;11.30;;;5.80;;
73130;SDS011;64204;13.766;100.702;2024-01-07T06:26:38;10.63;;;6.07;;
73130;SDS011;64204;13.766;100.702;2024-01-07T06:29:05;12.35;;;5.82;;
73130;SDS011;64204;13.766;100.702;2024-01-07T06:31:32;8.82;;;4.88;;
73130;SDS011;64204;13.766;100.702;2024-01-07T06:33:59;10.00;;;5.75;;
73130;SDS011;64204;13.766;100.702;2024-01-07T06:36:26;15.07;;;7.40;;
73130;SDS011;64204;13.766;100.702;2024-01-07T06:38:52;12.35;;;6.28;;
73130;SDS011;64204;13.766;100.702;2024-01-07T06:41:19;11.45;;;5.22;;
73130;SDS011;64204;13.766;100.702;2024-01-07T06:43:47;10.00;;;6.03;;
73130;SDS011;64204;13.766;100.702;2024-01-07T06:46:15;8.43;;;5.53;;
73130;SDS011;64204;13.766;100.702;2024-01-07T06:48:41;12.77;;;6.03;;
73130;SDS011;64204;13.766;100.702;2024-01-07T06:51:08;9.10;;;5.45;;
73130;SDS011;64204;13.766;100.702;2024-01-07T06:53:34;9.18;;;5.18;;
73130;SDS011;64204;13.766;100.702;2024-01-07T06:56:00;14.07;;;6.10;;
73130;SDS011;64204;13.766;100.702;2024-01-07T06:58:27;11.55;;;5.60;;
73130;SDS011;64204;13.766;100.702;2024-01-07T07:00:56;8.40;;;5.70;;
73130;SDS011;64204;13.766;100.702;2024-01-07T07:03:22;7.90;;;5.22;;
73130;SDS011;64204;13.766;100.702;2024-01-07T07:05:49;9.50;;;5.65;;
73130;SDS011;64204;13.766;100.702;2024-01-07T07:08:16;8.68;;;4.93;;
73130;SDS011;64204;13.766;100.702;2024-01-07T07:10:45;10.45;;;5.32;;
73130;SDS011;64204;13.766;100.702;2024-01-07T07:13:11;10.10;;;4.93;;
73130;SDS011;64204;13.766;100.702;2024-01-07T07:15:38;9.65;;;5.10;;
73130;SDS011;64204;13.766;100.702;2024-01-07T07:18:04;7.13;;;4.57;;
73130;SDS011;64204;13.766;100.702;2024-01-07T07:20:31;7.13;;;5.00;;
73130;SDS011;64204;13.766;100.702;2024-01-07T07:22:57;9.75;;;5.47;;
73130;SDS011;64204;13.766;100.702;2024-01-07T07:25:24;14.32;;;5.55;;
73130;SDS011;64204;13.766;100.702;2024-01-07T07:27:50;9.27;;;5.13;;
73130;SDS011;64204;13.766;100.702;2024-01-07T07:30:21;8.90;;;5.00;;
73130;SDS011;64204;13.766;100.702;2024-01-07T07:32:47;7.63;;;5.05;;
73130;SDS011;64204;13.766;100.702;2024-01-07T07:35:14;7.13;;;5.13;;
73130;SDS011;64204;13.766;100.702;2024-01-07T07:37:40;6.15;;;4.50;;
73130;SDS011;64204;13.766;100.702;2024-01-07T07:40:07;8.07;;;5.05;;
73130;SDS011;64204;13.766;100.702;2024-01-07T07:42:33;7.18;;;4.22;;
73130;SDS011;64204;13.766;100.702;2024-01-07T07:45:05;12.77;;;5.35;;
73130;SDS011;64204;13.766;100.702;2024-01-07T07:47:32;6.28;;;4.75;;
73130;SDS011;64204;13.766;100.702;2024-01-07T07:49:58;9.55;;;4.75;;
73130;SDS011;64204;13.766;100.702;2024-01-07T07:52:26;7.57;;;4.65;;
73130;SDS011;64204;13.766;100.702;2024-01-07T07:54:52;7.97;;;4.45;;
73130;SDS011;64204;13.766;100.702;2024-01-07T07:57:20;7.68;;;5.00;;
73130;SDS011;64204;13.766;100.702;2024-01-07T07:59:47;7.47;;;4.55;;
73130;SDS011;64204;13.766;100.702;2024-01-07T08:02:14;9.02;;;4.85;;
73130;SDS011;64204;13.766;100.702;2024-01-07T08:04:40;8.65;;;5.03;;
73130;SDS011;64204;13.766;100.702;2024-01-07T08:07:08;8.40;;;4.50;;
73130;SDS011;64204;13.766;100.702;2024-01-07T08:09:35;9.60;;;4.45;;
73130;SDS011;64204;13.766;100.702;2024-01-07T08:12:02;6.88;;;4.15;;
73130;SDS011;64204;13.766;100.702;2024-01-07T08:14:32;7.75;;;4.32;;
73130;SDS011;64204;13.766;100.702;2024-01-07T08:16:58;8.90;;;5.32;;
73130;SDS011;64204;13.766;100.702;2024-01-07T08:19:28;7.60;;;4.68;;
73130;SDS011;64204;13.766;100.702;2024-01-07T08:21:54;7.93;;;4.47;;
73130;SDS011;64204;13.766;100.702;2024-01-07T08:24:21;6.78;;;4.35;;
73130;SDS011;64204;13.766;100.702;2024-01-07T08:26:48;9.02;;;4.65;;
73130;SDS011;64204;13.766;100.702;2024-01-07T08:29:14;9.13;;;5.00;;
73130;SDS011;64204;13.766;100.702;2024-01-07T08:31:40;8.15;;;4.55;;
73130;SDS011;64204;13.766;100.702;2024-01-07T08:34:07;6.40;;;4.20;;
73130;SDS011;64204;13.766;100.702;2024-01-07T08:36:34;12.02;;;4.97;;
73130;SDS011;64204;13.766;100.702;2024-01-07T08:39:00;7.25;;;4.53;;
73130;SDS011;64204;13.766;100.702;2024-01-07T08:41:28;7.93;;;4.97;;
73130;SDS011;64204;13.766;100.702;2024-01-07T08:43:58;6.95;;;4.20;;
73130;SDS011;64204;13.766;100.702;2024-01-07T08:46:24;6.75;;;4.05;;
73130;SDS011;64204;13.766;100.702;2024-01-07T08:48:51;8.82;;;4.03;;
73130;SDS011;64204;13.766;100.702;2024-01-07T08:51:17;6.85;;;4.28;;
73130;SDS011;64204;13.766;100.702;2024-01-07T08:53:44;8.02;;;4.53;;
73130;SDS011;64204;13.766;100.702;2024-01-07T08:56:10;7.80;;;4.80;;
73130;SDS011;64204;13.766;100.702;2024-01-07T08:58:40;8.45;;;4.40;;
73130;SDS011;64204;13.766;100.702;2024-01-07T09:01:07;7.55;;;4.80;;
73130;SDS011;64204;13.766;100.702;2024-01-07T09:03:33;9.20;;;4.50;;
73130;SDS011;64204;13.766;100.702;2024-01-07T09:06:00;8.38;;;4.28;;
73130;SDS011;64204;13.766;100.702;2024-01-07T09:08:26;7.68;;;4.05;;
73130;SDS011;64204;13.766;100.702;2024-01-07T09:10:52;6.60;;;4.30;;
73130;SDS011;64204;13.766;100.702;2024-01-07T09:13:19;8.70;;;4.45;;
73130;SDS011;64204;13.766;100.702;2024-01-07T09:15:48;6.80;;;3.95;;
73130;SDS011;64204;13.766;100.702;2024-01-07T09:18:14;8.52;;;4.70;;
73130;SDS011;64204;13.766;100.702;2024-01-07T09:20:41;5.95;;;3.78;;
73130;SDS011;64204;13.766;100.702;2024-01-07T09:23:13;7.38;;;4.22;;
73130;SDS011;64204;13.766;100.702;2024-01-07T09:25:55;11.50;;;5.15;;
73130;SDS011;64204;13.766;100.702;2024-01-07T09:28:21;165.73;;;14.77;;
73130;SDS011;64204;13.766;100.702;2024-01-07T09:30:47;17.15;;;5.15;;
73130;SDS011;64204;13.766;100.702;2024-01-07T09:33:14;8.85;;;4.93;;
73130;SDS011;64204;13.766;100.702;2024-01-07T09:35:43;8.57;;;4.60;;
73130;SDS011;64204;13.766;100.702;2024-01-07T09:38:09;8.13;;;4.63;;
73130;SDS011;64204;13.766;100.702;2024-01-07T09:40:37;8.77;;;4.78;;
73130;SDS011;64204;13.766;100.702;2024-01-07T09:43:05;10.60;;;4.80;;
73130;SDS011;64204;13.766;100.702;2024-01-07T09:45:31;7.03;;;4.55;;
73130;SDS011;64204;13.766;100.702;2024-01-07T09:47:58;8.00;;;4.88;;
73130;SDS011;64204;13.766;100.702;2024-01-07T09:50:24;7.05;;;4.70;;
73130;SDS011;64204;13.766;100.702;2024-01-07T09:52:52;7.78;;;4.82;;
73130;SDS011;64204;13.766;100.702;2024-01-07T09:55:31;7.75;;;4.60;;
73130;SDS011;64204;13.766;100.702;2024-01-07T09:58:03;11.82;;;5.03;;
73130;SDS011;64204;13.766;100.702;2024-01-07T10:00:30;7.43;;;4.53;;
73130;SDS011;64204;13.766;100.702;2024-01-07T10:02:56;10.27;;;5.13;;
73130;SDS011;64204;13.766;100.702;2024-01-07T10:05:22;7.55;;;5.05;;
73130;SDS011;64204;13.766;100.702;2024-01-07T10:07:49;7.28;;;4.97;;
73130;SDS011;64204;13.766;100.702;2024-01-07T10:10:18;11.75;;;5.03;;
73130;SDS011;64204;13.766;100.702;2024-01-07T10:12:45;7.63;;;5.07;;
73130;SDS011;64204;13.766;100.702;2024-01-07T10:15:12;8.50;;;4.55;;
73130;SDS011;64204;13.766;100.702;2024-01-07T10:17:39;11.02;;;5.07;;
73130;SDS011;64204;13.766;100.702;2024-01-07T10:20:08;7.53;;;4.68;;
73130;SDS011;64204;13.766;100.702;2024-01-07T10:22:36;10.10;;;5.10;;
73130;SDS011;64204;13.766;100.702;2024-01-07T10:25:06;9.75;;;4.28;;
73130;SDS011;64204;13.766;100.702;2024-01-07T10:27:35;9.63;;;5.18;;
73130;SDS011;64204;13.766;100.702;2024-01-07T10:30:03;8.13;;;5.07;;
73130;SDS011;64204;13.766;100.702;2024-01-07T10:32:30;9.45;;;4.80;;
73130;SDS011;64204;13.766;100.702;2024-01-07T10:35:05;9.93;;;4.88;;
73130;SDS011;64204;13.766;100.702;2024-01-07T10:37:32;8.02;;;4.78;;
73130;SDS011;64204;13.766;100.702;2024-01-07T10:39:59;6.35;;;4.35;;
73130;SDS011;64204;13.766;100.702;2024-01-07T10:42:32;7.22;;;4.55;;
73130;SDS011;64204;13.766;100.702;2024-01-07T10:44:59;7.05;;;4.57;;
73130;SDS011;64204;13.766;100.702;2024-01-07T10:47:32;6.00;;;3.97;;
73130;SDS011;64204;13.766;100.702;2024-01-07T10:50:00;7.03;;;4.55;;
73130;SDS011;64204;13.766;100.702;2024-01-07T10:52:28;6.90;;;4.15;;
73130;SDS011;64204;13.766;100.702;2024-01-07T10:54:56;7.00;;;3.83;;
73130;SDS011;64204;13.766;100.702;2024-01-07T11:00:03;8.55;;;4.30;;
73130;SDS011;64204;13.766;100.702;2024-01-07T11:02:38;7.28;;;4.43;;
73130;SDS011;64204;13.766;100.702;2024-01-07T11:05:37;6.97;;;4.10;;
73130;SDS011;64204;13.766;100.702;2024-01-07T11:08:13;6.32;;;4.13;;
73130;SDS011;64204;13.766;100.702;2024-01-07T11:10:46;5.63;;;3.72;;
73130;SDS011;64204;13.766;100.702;2024-01-07T11:13:37;6.03;;;3.90;;
73130;SDS011;64204;13.766;100.702;2024-01-07T11:16:04;6.72;;;4.22;;
73130;SDS011;64204;13.766;100.702;2024-01-07T11:18:37;5.55;;;4.03;;
73130;SDS011;64204;13.766;100.702;2024-01-07T11:21:05;9.35;;;4.60;;
73130;SDS011;64204;13.766;100.702;2024-01-07T11:23:35;6.00;;;4.03;;
73130;SDS011;64204;13.766;100.702;2024-01-07T11:26:11;7.18;;;4.20;;
73130;SDS011;64204;13.766;100.702;2024-01-07T11:31:20;9.10;;;4.95;;
73130;SDS011;64204;13.766;100.702;2024-01-07T11:33:51;10.35;;;5.32;;
73130;SDS011;64204;13.766;100.702;2024-01-07T11:36:17;7.97;;;4.18;;
73130;SDS011;64204;13.766;100.702;2024-01-07T11:38:44;8.88;;;5.75;;
73130;SDS011;64204;13.766;100.702;2024-01-07T11:41:13;6.95;;;4.55;;
73130;SDS011;64204;13.766;100.702;2024-01-07T11:43:58;15.13;;;5.72;;
73130;SDS011;64204;13.766;100.702;2024-01-07T11:46:25;10.38;;;5.50;;
73130;SDS011;64204;13.766;100.702;2024-01-07T11:48:53;6.60;;;4.18;;
73130;SDS011;64204;13.766;100.702;2024-01-07T11:51:27;8.63;;;4.40;;
73130;SDS011;64204;13.766;100.702;2024-01-07T11:53:56;7.57;;;4.53;;
73130;SDS011;64204;13.766;100.702;2024-01-07T11:56:26;6.60;;;4.25;;
73130;SDS011;64204;13.766;100.702;2024-01-07T11:58:53;8.80;;;5.70;;
73130;SDS011;64204;13.766;100.702;2024-01-07T12:01:23;13.32;;;6.15;;
73130;SDS011;64204;13.766;100.702;2024-01-07T12:03:51;6.68;;;4.45;;
73130;SDS011;64204;13.766;100.702;2024-01-07T12:06:18;10.85;;;5.35;;
73130;SDS011;64204;13.766;100.702;2024-01-07T12:08:45;6.95;;;4.00;;
73130;SDS011;64204;13.766;100.702;2024-01-07T12:11:12;10.50;;;6.07;;
73130;SDS011;64204;13.766;100.702;2024-01-07T12:13:39;11.63;;;5.70;;
73130;SDS011;64204;13.766;100.702;2024-01-07T12:16:06;7.07;;;4.30;;
73130;SDS011;64204;13.766;100.702;2024-01-07T12:18:36;8.70;;;5.07;;
73130;SDS011;64204;13.766;100.702;2024-01-07T12:21:03;7.55;;;5.18;;
73130;SDS011;64204;13.766;100.702;2024-01-07T12:23:34;9.75;;;5.43;;
73130;SDS011;64204;13.766;100.702;2024-01-07T12:26:11;7.88;;;4.68;;
73130;SDS011;64204;13.766;100.702;2024-01-07T12:28:38;7.60;;;4.88;;
73130;SDS011;64204;13.766;100.702;2024-01-07T12:31:04;7.85;;;5.47;;
73130;SDS011;64204;13.766;100.702;2024-01-07T12:33:31;8.50;;;5.38;;
73130;SDS011;64204;13.766;100.702;2024-01-07T12:35:59;15.73;;;6.30;;
73130;SDS011;64204;13.766;100.702;2024-01-07T12:38:26;11.10;;;6.10;;
73130;SDS011;64204;13.766;100.702;2024-01-07T12:40:53;9.48;;;6.85;;
73130;SDS011;64204;13.766;100.702;2024-01-07T12:43:19;11.73;;;6.45;;
73130;SDS011;64204;13.766;100.702;2024-01-07T12:45:49;10.05;;;5.95;;
73130;SDS011;64204;13.766;100.702;2024-01-07T12:48:16;11.95;;;5.90;;
73130;SDS011;64204;13.766;100.702;2024-01-07T12:50:42;9.65;;;5.93;;
73130;SDS011;64204;13.766;100.702;2024-01-07T12:53:08;7.95;;;5.25;;
73130;SDS011;64204;13.766;100.702;2024-01-07T12:55:35;9.80;;;5.10;;
73130;SDS011;64204;13.766;100.702;2024-01-07T12:58:01;7.40;;;5.43;;
73130;SDS011;64204;13.766;100.702;2024-01-07T13:00:28;7.88;;;5.15;;
73130;SDS011;64204;13.766;100.702;2024-01-07T13:02:54;8.30;;;5.43;;
73130;SDS011;64204;13.766;100.702;2024-01-07T13:05:21;16.02;;;7.03;;
73130;SDS011;64204;13.766;100.702;2024-01-07T13:07:47;13.18;;;7.15;;
73130;SDS011;64204;13.766;100.702;2024-01-07T13:10:15;11.15;;;7.07;;
73130;SDS011;64204;13.766;100.702;2024-01-07T13:12:41;12.45;;;6.82;;
73130;SDS011;64204;13.766;100.702;2024-01-07T13:15:11;11.20;;;6.90;;
73130;SDS011;64204;13.766;100.702;2024-01-07T13:17:43;15.52;;;6.57;;
73130;SDS011;64204;13.766;100.702;2024-01-07T13:20:12;14.43;;;7.72;;
73130;SDS011;64204;13.766;100.702;2024-01-07T13:22:38;15.48;;;7.97;;
73130;SDS011;64204;13.766;100.702;2024-01-07T13:25:08;12.07;;;6.47;;
73130;SDS011;64204;13.766;100.702;2024-01-07T13:27:37;14.38;;;7.03;;
73130;SDS011;64204;13.766;100.702;2024-01-07T13:30:04;16.02;;;8.82;;
73130;SDS011;64204;13.766;100.702;2024-01-07T13:32:41;10.82;;;6.25;;
73130;SDS011;64204;13.766;100.702;2024-01-07T13:35:14;11.55;;;6.65;;
73130;SDS011;64204;13.766;100.702;2024-01-07T13:37:42;15.98;;;7.07;;
73130;SDS011;64204;13.766;100.702;2024-01-07T13:40:08;12.30;;;6.45;;
73130;SDS011;64204;13.766;100.702;2024-01-07T13:42:38;11.68;;;6.63;;
73130;SDS011;64204;13.766;100.702;2024-01-07T13:45:05;9.13;;;5.10;;
73130;SDS011;64204;13.766;100.702;2024-01-07T13:47:34;16.02;;;6.82;;
73130;SDS011;64204;13.766;100.702;2024-01-07T13:50:01;16.17;;;6.95;;
73130;SDS011;64204;13.766;100.702;2024-01-07T13:52:29;12.02;;;6.47;;
73130;SDS011;64204;13.766;100.702;2024-01-07T13:54:55;17.48;;;8.77;;
73130;SDS011;64204;13.766;100.702;2024-01-07T13:57:22;15.50;;;7.95;;
73130;SDS011;64204;13.766;100.702;2024-01-07T13:59:49;12.95;;;7.63;;
73130;SDS011;64204;13.766;100.702;2024-01-07T14:02:15;13.40;;;7.72;;
73130;SDS011;64204;13.766;100.702;2024-01-07T14:04:44;18.05;;;8.65;;
73130;SDS011;64204;13.766;100.702;2024-01-07T14:07:16;10.18;;;6.53;;
73130;SDS011;64204;13.766;100.702;2024-01-07T14:09:46;12.30;;;7.13;;
73130;SDS011;64204;13.766;100.702;2024-01-07T14:12:18;10.27;;;6.85;;
73130;SDS011;64204;13.766;100.702;2024-01-07T14:14:44;10.95;;;6.88;;
73130;SDS011;64204;13.766;100.702;2024-01-07T14:17:10;14.43;;;7.38;;
73130;SDS011;64204;13.766;100.702;2024-01-07T14:19:40;20.52;;;9.93;;
73130;SDS011;64204;13.766;100.702;2024-01-07T14:22:13;9.07;;;6.45;;
73130;SDS011;64204;13.766;100.702;2024-01-07T14:24:41;17.33;;;9.48;;
73130;SDS011;64204;13.766;100.702;2024-01-07T14:27:07;13.13;;;7.75;;